sensor_id;sensor_type;location;lat;lon;timestamp;pressure;altitude;pressure_sealevel;temperature;humidity
6218;BME280;3142;48.206;11.550;2022-09-21T00:00:47;96472.94;;;11.19;68.24
6218;BME280;3142;48.206;11.550;2022-09-21T00:03:14;96476.81;;;11.23;68.08
6218;BME280;3142;48.206;11.550;2022-09-21T00:05:41;96480.06;;;11.25;68.10
6218;BME280;3142;48.206;11.550;2022-09-21T00:08:09;96474.47;;;11.28;68.31
6218;BME280;3142;48.206;11.550;2022-09-21T00:10:38;96478.06;;;11.27;68.10
6218;BME280;3142;48.206;11.550;2022-09-21T00:13:05;96471.22;;;11.26;68.11
6218;BME280;3142;48.206;11.550;2022-09-21T00:15:32;96473.47;;;11.29;67.95
6218;BME280;3142;48.206;11.550;2022-09-21T00:17:59;96479.88;;;11.26;68.11
6218;BME280;3142;48.206;11.550;2022-09-21T00:20:26;96476.28;;;11.27;67.80
6218;BME280;3142;48.206;11.550;2022-09-21T00:22:53;96469.31;;;11.20;68.31
6218;BME280;3142;48.206;11.550;2022-09-21T00:25:19;96476.94;;;11.15;68.28
6218;BME280;3142;48.206;11.550;2022-09-21T00:27:47;96471.88;;;11.13;68.86
6218;BME280;3142;48.206;11.550;2022-09-21T00:30:16;96470.88;;;11.14;69.24
6218;BME280;3142;48.206;11.550;2022-09-21T00:32:42;96472.31;;;11.17;69.16
6218;BME280;3142;48.206;11.550;2022-09-21T00:35:09;96474.56;;;11.20;69.32
6218;BME280;3142;48.206;11.550;2022-09-21T00:37:35;96472.59;;;11.07;69.35
6218;BME280;3142;48.206;11.550;2022-09-21T00:40:03;96474.34;;;11.00;69.59
6218;BME280;3142;48.206;11.550;2022-09-21T00:42:31;96475.41;;;10.91;69.83
6218;BME280;3142;48.206;11.550;2022-09-21T00:44:59;96474.59;;;10.90;70.11
6218;BME280;3142;48.206;11.550;2022-09-21T00:47:30;96477.66;;;10.94;70.08
6218;BME280;3142;48.206;11.550;2022-09-21T00:50:02;96482.84;;;10.87;69.55
6218;BME280;3142;48.206;11.550;2022-09-21T00:52:32;96478.84;;;10.77;70.07
6218;BME280;3142;48.206;11.550;2022-09-21T00:55:02;96480.47;;;10.78;70.47
6218;BME280;3142;48.206;11.550;2022-09-21T00:57:31;96472.19;;;10.74;70.36
6218;BME280;3142;48.206;11.550;2022-09-21T01:00:04;96479.03;;;10.75;70.25
6218;BME280;3142;48.206;11.550;2022-09-21T01:02:32;96474.69;;;10.67;70.16
6218;BME280;3142;48.206;11.550;2022-09-21T01:04:59;96479.22;;;10.74;70.24
6218;BME280;3142;48.206;11.550;2022-09-21T01:07:28;96476.63;;;10.74;70.12
6218;BME280;3142;48.206;11.550;2022-09-21T01:10:02;96476.63;;;10.74;70.02
6218;BME280;3142;48.206;11.550;2022-09-21T01:12:40;96480.22;;;10.73;70.28
6218;BME280;3142;48.206;11.550;2022-09-21T01:15:22;96484.28;;;10.75;70.24
6218;BME280;3142;48.206;11.550;2022-09-21T01:17:59;96486.28;;;10.73;69.75
6218;BME280;3142;48.206;11.550;2022-09-21T01:20:50;96476.31;;;10.68;69.96
6218;BME280;3142;48.206;11.550;2022-09-21T01:23:37;96492.22;;;10.52;70.19
6218;BME280;3142;48.206;11.550;2022-09-21T01:26:13;96485.91;;;10.47;70.53
6218;BME280;3142;48.206;11.550;2022-09-21T01:29:10;96478.75;;;10.41;70.82
6218;BME280;3142;48.206;11.550;2022-09-21T01:31:40;96478.66;;;10.34;70.67
6218;BME280;3142;48.206;11.550;2022-09-21T01:34:15;96471.81;;;10.33;70.93
6218;BME280;3142;48.206;11.550;2022-09-21T01:36:46;96464.50;;;10.28;71.20
6218;BME280;3142;48.206;11.550;2022-09-21T01:39:16;96468.09;;;10.27;71.19
6218;BME280;3142;48.206;11.550;2022-09-21T01:41:45;96475.31;;;10.25;70.88
6218;BME280;3142;48.206;11.550;2022-09-21T01:44:18;96471.06;;;10.24;70.90
6218;BME280;3142;48.206;11.550;2022-09-21T01:46:46;96476.66;;;10.21;70.87
6218;BME280;3142;48.206;11.550;2022-09-21T01:49:15;96486.63;;;10.18;70.79
6218;BME280;3142;48.206;11.550;2022-09-21T01:51:46;96470.66;;;10.13;71.62
6218;BME280;3142;48.206;11.550;2022-09-21T01:54:17;96473.44;;;10.11;71.62
6218;BME280;3142;48.206;11.550;2022-09-21T01:56:47;96472.81;;;10.09;71.34
6218;BME280;3142;48.206;11.550;2022-09-21T01:59:21;96481.19;;;10.04;71.75
6218;BME280;3142;48.206;11.550;2022-09-21T02:01:52;96474.69;;;10.00;71.28
6218;BME280;3142;48.206;11.550;2022-09-21T02:04:21;96469.44;;;10.00;71.13
6218;BME280;3142;48.206;11.550;2022-09-21T02:06:48;96474.06;;;9.98;71.50
6218;BME280;3142;48.206;11.550;2022-09-21T02:09:16;96474.22;;;9.97;71.46
6218;BME280;3142;48.206;11.550;2022-09-21T02:11:43;96475.78;;;10.06;71.84
6218;BME280;3142;48.206;11.550;2022-09-21T02:14:11;96475.38;;;10.17;71.39
6218;BME280;3142;48.206;11.550;2022-09-21T02:16:43;96469.78;;;10.20;71.21
6218;BME280;3142;48.206;11.550;2022-09-21T02:19:14;96468.16;;;10.19;71.37
6218;BME280;3142;48.206;11.550;2022-09-21T02:21:54;96473.88;;;10.23;71.01
6218;BME280;3142;48.206;11.550;2022-09-21T02:24:30;96466.34;;;10.20;71.12
6218;BME280;3142;48.206;11.550;2022-09-21T02:27:03;96468.69;;;10.15;71.23
6218;BME280;3142;48.206;11.550;2022-09-21T02:29:36;96469.03;;;10.12;71.58
6218;BME280;3142;48.206;11.550;2022-09-21T02:32:11;96477.78;;;10.04;72.08
6218;BME280;3142;48.206;11.550;2022-09-21T02:34:44;96480.56;;;10.02;72.16
6218;BME280;3142;48.206;11.550;2022-09-21T02:37:18;96480.91;;;9.99;71.94
6218;BME280;3142;48.206;11.550;2022-09-21T02:39:53;96474.59;;;9.94;72.30
6218;BME280;3142;48.206;11.550;2022-09-21T02:42:25;96479.81;;;9.94;72.09
6218;BME280;3142;48.206;11.550;2022-09-21T02:44:57;96481.16;;;9.90;71.39
6218;BME280;3142;48.206;11.550;2022-09-21T02:47:32;96482.78;;;9.91;71.60
6218;BME280;3142;48.206;11.550;2022-09-21T02:50:04;96485.41;;;9.91;72.07
6218;BME280;3142;48.206;11.550;2022-09-21T02:52:33;96482.97;;;9.89;72.17
6218;BME280;3142;48.206;11.550;2022-09-21T02:55:02;96490.44;;;9.92;71.63
6218;BME280;3142;48.206;11.550;2022-09-21T02:57:30;96488.19;;;9.89;71.53
6218;BME280;3142;48.206;11.550;2022-09-21T02:59:57;96484.81;;;9.80;71.44
6218;BME280;3142;48.206;11.550;2022-09-21T03:02:23;96487.63;;;9.79;72.66
6218;BME280;3142;48.206;11.550;2022-09-21T03:04:51;96483.66;;;9.83;71.89
6218;BME280;3142;48.206;11.550;2022-09-21T03:07:18;96493.28;;;9.83;72.09
6218;BME280;3142;48.206;11.550;2022-09-21T03:09:44;96487.16;;;9.75;72.27
6218;BME280;3142;48.206;11.550;2022-09-21T03:12:11;96488.66;;;9.70;71.70
6218;BME280;3142;48.206;11.550;2022-09-21T03:14:38;96487.22;;;9.67;71.86
6218;BME280;3142;48.206;11.550;2022-09-21T03:17:04;96488.91;;;9.60;71.23
6218;BME280;3142;48.206;11.550;2022-09-21T03:19:31;96490.53;;;9.61;71.53
6218;BME280;3142;48.206;11.550;2022-09-21T03:21:58;96492.53;;;9.51;72.12
6218;BME280;3142;48.206;11.550;2022-09-21T03:24:25;96489.97;;;9.43;71.90
6218;BME280;3142;48.206;11.550;2022-09-21T03:27:09;96490.59;;;9.45;72.04
6218;BME280;3142;48.206;11.550;2022-09-21T03:29:35;96491.94;;;9.41;71.97
6218;BME280;3142;48.206;11.550;2022-09-21T03:32:02;96488.25;;;9.35;71.50
6218;BME280;3142;48.206;11.550;2022-09-21T03:34:29;96493.63;;;9.34;72.60
6218;BME280;3142;48.206;11.550;2022-09-21T03:37:00;96491.19;;;9.32;72.23
6218;BME280;3142;48.206;11.550;2022-09-21T03:39:26;96492.34;;;9.30;72.73
6218;BME280;3142;48.206;11.550;2022-09-21T03:41:53;96489.78;;;9.22;72.60
6218;BME280;3142;48.206;11.550;2022-09-21T03:44:21;96480.97;;;9.23;72.23
6218;BME280;3142;48.206;11.550;2022-09-21T03:46:47;96490.78;;;9.20;73.18
6218;BME280;3142;48.206;11.550;2022-09-21T03:49:14;96482.31;;;9.18;72.33
6218;BME280;3142;48.206;11.550;2022-09-21T03:51:41;96488.00;;;9.14;72.50
6218;BME280;3142;48.206;11.550;2022-09-21T03:54:09;96485.41;;;9.14;72.69
6218;BME280;3142;48.206;11.550;2022-09-21T03:56:35;96487.34;;;9.20;71.85
6218;BME280;3142;48.206;11.550;2022-09-21T03:59:02;96490.41;;;9.24;71.77
6218;BME280;3142;48.206;11.550;2022-09-21T04:01:29;96484.69;;;9.28;71.75
6218;BME280;3142;48.206;11.550;2022-09-21T04:03:55;96490.06;;;9.27;71.60
6218;BME280;3142;48.206;11.550;2022-09-21T04:06:22;96491.88;;;9.26;71.41
6218;BME280;3142;48.206;11.550;2022-09-21T04:08:49;96492.84;;;9.25;70.91
6218;BME280;3142;48.206;11.550;2022-09-21T04:11:19;96496.09;;;9.27;70.73
6218;BME280;3142;48.206;11.550;2022-09-21T04:13:48;96491.22;;;9.24;70.96
6218;BME280;3142;48.206;11.550;2022-09-21T04:16:16;96492.22;;;9.23;71.14
6218;BME280;3142;48.206;11.550;2022-09-21T04:18:43;96508.34;;;9.27;71.41
6218;BME280;3142;48.206;11.550;2022-09-21T04:21:09;96506.72;;;9.26;71.34
6218;BME280;3142;48.206;11.550;2022-09-21T04:23:35;96500.59;;;9.10;71.25
6218;BME280;3142;48.206;11.550;2022-09-21T04:26:02;96497.69;;;9.05;72.68
6218;BME280;3142;48.206;11.550;2022-09-21T04:28:30;96501.94;;;9.06;71.64
6218;BME280;3142;48.206;11.550;2022-09-21T04:30:56;96504.72;;;9.05;71.85
6218;BME280;3142;48.206;11.550;2022-09-21T04:33:23;96508.28;;;9.04;72.78
6218;BME280;3142;48.206;11.550;2022-09-21T04:35:53;96505.56;;;8.97;72.20
6218;BME280;3142;48.206;11.550;2022-09-21T04:38:19;96512.75;;;8.95;72.54
6218;BME280;3142;48.206;11.550;2022-09-21T04:40:53;96508.19;;;8.89;72.20
6218;BME280;3142;48.206;11.550;2022-09-21T04:43:20;96510.13;;;8.95;72.75
6218;BME280;3142;48.206;11.550;2022-09-21T04:45:47;96511.75;;;8.96;73.53
6218;BME280;3142;48.206;11.550;2022-09-21T04:48:14;96510.44;;;9.00;73.43
6218;BME280;3142;48.206;11.550;2022-09-21T04:50:40;96510.44;;;9.00;71.82
6218;BME280;3142;48.206;11.550;2022-09-21T04:53:07;96519.88;;;9.01;71.63
6218;BME280;3142;48.206;11.550;2022-09-21T04:55:33;96523.81;;;8.97;72.16
6218;BME280;3142;48.206;11.550;2022-09-21T04:57:59;96528.88;;;8.99;71.60
6218;BME280;3142;48.206;11.550;2022-09-21T05:00:26;96533.56;;;9.03;72.14
6218;BME280;3142;48.206;11.550;2022-09-21T05:02:54;96538.31;;;9.08;71.04
6218;BME280;3142;48.206;11.550;2022-09-21T05:05:20;96542.38;;;9.10;71.12
6218;BME280;3142;48.206;11.550;2022-09-21T05:07:46;96538.97;;;9.02;71.89
6218;BME280;3142;48.206;11.550;2022-09-21T05:10:13;96536.22;;;8.95;71.16
6218;BME280;3142;48.206;11.550;2022-09-21T05:12:39;96542.59;;;8.93;71.60
6218;BME280;3142;48.206;11.550;2022-09-21T05:15:07;96541.63;;;8.94;72.44
6218;BME280;3142;48.206;11.550;2022-09-21T05:17:34;96544.19;;;9.02;72.11
6218;BME280;3142;48.206;11.550;2022-09-21T05:20:02;96546.63;;;9.03;72.51
6218;BME280;3142;48.206;11.550;2022-09-21T05:22:29;96544.69;;;9.05;71.80
6218;BME280;3142;48.206;11.550;2022-09-21T05:24:55;96552.16;;;9.08;71.49
6218;BME280;3142;48.206;11.550;2022-09-21T05:27:21;96551.53;;;9.06;72.09
6218;BME280;3142;48.206;11.550;2022-09-21T05:29:48;96548.59;;;9.01;72.48
6218;BME280;3142;48.206;11.550;2022-09-21T05:32:20;96547.66;;;8.94;72.00
6218;BME280;3142;48.206;11.550;2022-09-21T05:34:55;96547.31;;;8.89;72.17
6218;BME280;3142;48.206;11.550;2022-09-21T05:37:39;96544.41;;;8.92;72.54
6218;BME280;3142;48.206;11.550;2022-09-21T05:40:11;96545.97;;;9.01;71.95
6218;BME280;3142;48.206;11.550;2022-09-21T05:42:38;96549.75;;;8.99;73.32
6218;BME280;3142;48.206;11.550;2022-09-21T05:45:06;96548.59;;;9.01;72.19
6218;BME280;3142;48.206;11.550;2022-09-21T05:47:37;96554.63;;;9.02;71.65
6218;BME280;3142;48.206;11.550;2022-09-21T05:50:17;96538.03;;;8.95;72.55
6218;BME280;3142;48.206;11.550;2022-09-21T05:52:54;96542.91;;;8.98;73.81
6218;BME280;3142;48.206;11.550;2022-09-21T05:55:32;96537.66;;;9.06;73.17
6218;BME280;3142;48.206;11.550;2022-09-21T05:58:07;96549.09;;;9.05;73.30
6218;BME280;3142;48.206;11.550;2022-09-21T06:00:41;96552.00;;;9.10;72.88
6218;BME280;3142;48.206;11.550;2022-09-21T06:03:26;96547.25;;;9.13;72.71
6218;BME280;3142;48.206;11.550;2022-09-21T06:05:53;96552.94;;;9.17;72.16
6218;BME280;3142;48.206;11.550;2022-09-21T06:08:21;96542.50;;;9.17;73.54
6218;BME280;3142;48.206;11.550;2022-09-21T06:10:47;96554.38;;;9.28;73.60
6218;BME280;3142;48.206;11.550;2022-09-21T06:13:14;96551.56;;;9.37;73.12
6218;BME280;3142;48.206;11.550;2022-09-21T06:15:40;96561.09;;;9.53;72.20
6218;BME280;3142;48.206;11.550;2022-09-21T06:18:07;96560.53;;;9.66;72.43
6218;BME280;3142;48.206;11.550;2022-09-21T06:20:34;96558.00;;;9.80;72.25
6218;BME280;3142;48.206;11.550;2022-09-21T06:23:01;96559.28;;;10.07;72.07
6218;BME280;3142;48.206;11.550;2022-09-21T06:25:28;96565.72;;;10.43;70.92
6218;BME280;3142;48.206;11.550;2022-09-21T06:27:56;96565.16;;;10.85;70.06
6218;BME280;3142;48.206;11.550;2022-09-21T06:30:26;96567.84;;;11.21;69.11
6218;BME280;3142;48.206;11.550;2022-09-21T06:32:52;96563.66;;;11.56;68.07
6218;BME280;3142;48.206;11.550;2022-09-21T06:35:19;96565.56;;;11.98;67.40
6218;BME280;3142;48.206;11.550;2022-09-21T06:37:45;96565.50;;;12.34;66.36
6218;BME280;3142;48.206;11.550;2022-09-21T06:40:12;96569.84;;;12.77;64.17
6218;BME280;3142;48.206;11.550;2022-09-21T06:42:39;96562.16;;;13.10;62.96
6218;BME280;3142;48.206;11.550;2022-09-21T06:45:07;96565.41;;;13.46;62.45
6218;BME280;3142;48.206;11.550;2022-09-21T06:47:33;96557.44;;;13.81;61.78
6218;BME280;3142;48.206;11.550;2022-09-21T06:50:00;96559.72;;;14.10;61.08
6218;BME280;3142;48.206;11.550;2022-09-21T06:52:27;96569.47;;;14.43;59.48
6218;BME280;3142;48.206;11.550;2022-09-21T06:54:53;96564.63;;;14.86;58.42
6218;BME280;3142;48.206;11.550;2022-09-21T06:57:20;96563.69;;;15.38;57.13
6218;BME280;3142;48.206;11.550;2022-09-21T06:59:47;96566.53;;;15.88;55.01
6218;BME280;3142;48.206;11.550;2022-09-21T07:02:14;96568.94;;;16.28;53.93
6218;BME280;3142;48.206;11.550;2022-09-21T07:04:40;96558.63;;;16.76;53.54
6218;BME280;3142;48.206;11.550;2022-09-21T07:07:06;96567.72;;;17.24;52.03
6218;BME280;3142;48.206;11.550;2022-09-21T07:09:33;96556.09;;;17.61;51.53
6218;BME280;3142;48.206;11.550;2022-09-21T07:11:59;96559.59;;;17.92;51.42
6218;BME280;3142;48.206;11.550;2022-09-21T07:14:26;96555.59;;;18.43;49.91
6218;BME280;3142;48.206;11.550;2022-09-21T07:16:54;96558.22;;;18.84;48.88
6218;BME280;3142;48.206;11.550;2022-09-21T07:19:20;96561.09;;;19.06;48.94
6218;BME280;3142;48.206;11.550;2022-09-21T07:21:46;96552.91;;;19.19;47.55
6218;BME280;3142;48.206;11.550;2022-09-21T07:24:13;96561.03;;;19.41;47.20
6218;BME280;3142;48.206;11.550;2022-09-21T07:26:40;96569.19;;;19.75;46.48
6218;BME280;3142;48.206;11.550;2022-09-21T07:29:07;96564.97;;;19.91;45.89
6218;BME280;3142;48.206;11.550;2022-09-21T07:31:33;96559.75;;;19.96;45.46
6218;BME280;3142;48.206;11.550;2022-09-21T07:34:01;96562.63;;;20.23;44.67
6218;BME280;3142;48.206;11.550;2022-09-21T07:36:27;96565.38;;;20.56;44.94
6218;BME280;3142;48.206;11.550;2022-09-21T07:38:54;96565.50;;;20.66;43.88
6218;BME280;3142;48.206;11.550;2022-09-21T07:41:20;96558.34;;;20.84;43.64
6218;BME280;3142;48.206;11.550;2022-09-21T07:43:47;96565.09;;;20.91;43.97
6218;BME280;3142;48.206;11.550;2022-09-21T07:46:13;96571.94;;;21.04;43.25
6218;BME280;3142;48.206;11.550;2022-09-21T07:48:41;96564.91;;;21.15;43.38
6218;BME280;3142;48.206;11.550;2022-09-21T07:51:11;96566.84;;;21.19;43.33
6218;BME280;3142;48.206;11.550;2022-09-21T07:53:40;96562.88;;;21.39;43.22
6218;BME280;3142;48.206;11.550;2022-09-21T07:56:08;96566.53;;;21.54;42.08
6218;BME280;3142;48.206;11.550;2022-09-21T07:58:36;96562.56;;;21.57;42.60
6218;BME280;3142;48.206;11.550;2022-09-21T08:01:20;96561.81;;;21.62;42.87
6218;BME280;3142;48.206;11.550;2022-09-21T08:03:47;96570.50;;;21.74;42.41
6218;BME280;3142;48.206;11.550;2022-09-21T08:06:15;96563.81;;;21.71;41.67
6218;BME280;3142;48.206;11.550;2022-09-21T08:08:42;96565.34;;;21.89;42.14
6218;BME280;3142;48.206;11.550;2022-09-21T08:11:09;96562.13;;;22.09;41.92
6218;BME280;3142;48.206;11.550;2022-09-21T08:13:36;96572.66;;;21.99;41.02
6218;BME280;3142;48.206;11.550;2022-09-21T08:16:02;96571.59;;;21.78;41.49
6218;BME280;3142;48.206;11.550;2022-09-21T08:18:29;96574.06;;;22.06;40.99
6218;BME280;3142;48.206;11.550;2022-09-21T08:20:57;96568.72;;;22.28;40.71
6218;BME280;3142;48.206;11.550;2022-09-21T08:23:25;96575.66;;;22.29;40.04
6218;BME280;3142;48.206;11.550;2022-09-21T08:25:57;96564.28;;;22.39;40.16
6218;BME280;3142;48.206;11.550;2022-09-21T08:28:23;96567.94;;;22.06;39.83
6218;BME280;3142;48.206;11.550;2022-09-21T08:30:49;96570.53;;;22.23;39.98
6218;BME280;3142;48.206;11.550;2022-09-21T08:33:16;96574.00;;;22.50;39.70
6218;BME280;3142;48.206;11.550;2022-09-21T08:35:42;96574.44;;;22.74;39.12
6218;BME280;3142;48.206;11.550;2022-09-21T08:38:16;96573.81;;;22.94;38.94
6218;BME280;3142;48.206;11.550;2022-09-21T08:40:44;96577.06;;;23.01;37.94
6218;BME280;3142;48.206;11.550;2022-09-21T08:43:13;96575.47;;;23.00;38.01
6218;BME280;3142;48.206;11.550;2022-09-21T08:45:42;96582.00;;;23.19;37.12
6218;BME280;3142;48.206;11.550;2022-09-21T08:48:14;96590.38;;;23.33;37.47
6218;BME280;3142;48.206;11.550;2022-09-21T08:50:46;96585.13;;;23.53;37.16
6218;BME280;3142;48.206;11.550;2022-09-21T08:53:17;96580.66;;;23.64;36.63
6218;BME280;3142;48.206;11.550;2022-09-21T08:55:46;96579.31;;;23.61;36.44
6218;BME280;3142;48.206;11.550;2022-09-21T08:58:20;96579.38;;;23.77;36.40
6218;BME280;3142;48.206;11.550;2022-09-21T09:00:50;96575.69;;;23.93;36.95
6218;BME280;3142;48.206;11.550;2022-09-21T09:03:31;96575.47;;;24.05;36.41
6218;BME280;3142;48.206;11.550;2022-09-21T09:06:02;96586.28;;;23.68;36.47
6218;BME280;3142;48.206;11.550;2022-09-21T09:08:55;96581.84;;;23.93;36.31
6218;BME280;3142;48.206;11.550;2022-09-21T09:11:39;96583.53;;;24.25;35.90
6218;BME280;3142;48.206;11.550;2022-09-21T09:14:31;96579.56;;;24.48;35.06
6218;BME280;3142;48.206;11.550;2022-09-21T09:17:18;96580.41;;;24.54;34.17
6218;BME280;3142;48.206;11.550;2022-09-21T09:19:50;96570.75;;;24.52;34.08
6218;BME280;3142;48.206;11.550;2022-09-21T09:22:25;96575.25;;;24.27;35.58
6218;BME280;3142;48.206;11.550;2022-09-21T09:24:57;96571.00;;;24.51;34.74
6218;BME280;3142;48.206;11.550;2022-09-21T09:27:31;96578.25;;;24.76;34.70
6218;BME280;3142;48.206;11.550;2022-09-21T09:30:03;96566.75;;;24.96;34.11
6218;BME280;3142;48.206;11.550;2022-09-21T09:32:37;96572.88;;;24.91;33.26
6218;BME280;3142;48.206;11.550;2022-09-21T09:35:15;96574.78;;;24.96;33.04
6218;BME280;3142;48.206;11.550;2022-09-21T09:37:47;96577.44;;;24.96;33.71
6218;BME280;3142;48.206;11.550;2022-09-21T09:40:20;96573.69;;;24.92;33.19
6218;BME280;3142;48.206;11.550;2022-09-21T09:43:01;96561.41;;;24.55;33.29
6218;BME280;3142;48.206;11.550;2022-09-21T09:45:40;96565.13;;;24.79;32.71
6218;BME280;3142;48.206;11.550;2022-09-21T09:48:37;96553.06;;;25.07;32.96
6218;BME280;3142;48.206;11.550;2022-09-21T09:51:10;96555.16;;;25.41;32.90
6218;BME280;3142;48.206;11.550;2022-09-21T09:53:37;96557.53;;;25.48;33.20
6218;BME280;3142;48.206;11.550;2022-09-21T09:56:05;96551.34;;;25.57;32.67
6218;BME280;3142;48.206;11.550;2022-09-21T09:58:38;96561.56;;;24.08;34.33
6218;BME280;3142;48.206;11.550;2022-09-21T10:01:07;96556.06;;;23.15;36.06
6218;BME280;3142;48.206;11.550;2022-09-21T10:03:33;96550.03;;;22.28;36.72
6218;BME280;3142;48.206;11.550;2022-09-21T10:06:00;96545.31;;;22.67;35.61
6218;BME280;3142;48.206;11.550;2022-09-21T10:08:29;96550.91;;;21.63;37.35
6218;BME280;3142;48.206;11.550;2022-09-21T10:10:56;96541.91;;;20.87;38.81
6218;BME280;3142;48.206;11.550;2022-09-21T10:13:26;96543.84;;;20.58;39.33
6218;BME280;3142;48.206;11.550;2022-09-21T10:15:57;96553.13;;;20.27;40.38
6218;BME280;3142;48.206;11.550;2022-09-21T10:18:26;96541.59;;;21.87;38.56
6218;BME280;3142;48.206;11.550;2022-09-21T10:20:57;96538.13;;;22.09;38.68
6218;BME280;3142;48.206;11.550;2022-09-21T10:23:27;96535.88;;;22.55;37.34
6218;BME280;3142;48.206;11.550;2022-09-21T10:25:57;96532.84;;;22.78;37.37
6218;BME280;3142;48.206;11.550;2022-09-21T10:28:25;96529.81;;;23.49;35.24
6218;BME280;3142;48.206;11.550;2022-09-21T10:31:10;96531.34;;;24.07;34.05
6218;BME280;3142;48.206;11.550;2022-09-21T10:33:52;96522.03;;;24.30;33.30
6218;BME280;3142;48.206;11.550;2022-09-21T10:36:28;96524.44;;;24.52;33.25
6218;BME280;3142;48.206;11.550;2022-09-21T10:38:57;96518.81;;;24.84;33.25
6218;BME280;3142;48.206;11.550;2022-09-21T10:41:35;96506.41;;;25.29;32.66
6218;BME280;3142;48.206;11.550;2022-09-21T10:44:02;96510.66;;;25.35;31.74
6218;BME280;3142;48.206;11.550;2022-09-21T10:46:34;96514.13;;;25.51;31.91
6218;BME280;3142;48.206;11.550;2022-09-21T10:49:01;96513.19;;;25.81;32.19
6218;BME280;3142;48.206;11.550;2022-09-21T10:51:29;96503.78;;;25.83;31.39
6218;BME280;3142;48.206;11.550;2022-09-21T10:53:59;96516.41;;;25.83;31.10
6218;BME280;3142;48.206;11.550;2022-09-21T10:56:25;96505.44;;;25.79;31.45
6218;BME280;3142;48.206;11.550;2022-09-21T10:59:18;96504.16;;;25.56;31.10
6218;BME280;3142;48.206;11.550;2022-09-21T11:01:48;96498.38;;;25.29;31.41
6218;BME280;3142;48.206;11.550;2022-09-21T11:04:20;96506.19;;;24.03;33.19
6218;BME280;3142;48.206;11.550;2022-09-21T11:06:50;96506.38;;;22.34;35.02
6218;BME280;3142;48.206;11.550;2022-09-21T11:09:21;96503.69;;;23.03;34.48
6218;BME280;3142;48.206;11.550;2022-09-21T11:11:52;96511.03;;;24.21;33.46
6218;BME280;3142;48.206;11.550;2022-09-21T11:14:36;96503.28;;;24.66;32.75
6218;BME280;3142;48.206;11.550;2022-09-21T11:17:12;96488.22;;;25.26;31.84
6218;BME280;3142;48.206;11.550;2022-09-21T11:19:43;96498.75;;;24.81;32.11
6218;BME280;3142;48.206;11.550;2022-09-21T11:22:18;96505.41;;;24.23;31.07
6218;BME280;3142;48.206;11.550;2022-09-21T11:24:51;96501.94;;;24.12;31.13
6218;BME280;3142;48.206;11.550;2022-09-21T11:27:21;96495.03;;;23.39;31.36
6218;BME280;3142;48.206;11.550;2022-09-21T11:29:57;96492.50;;;23.12;32.09
6218;BME280;3142;48.206;11.550;2022-09-21T11:32:35;96494.22;;;21.24;34.25
6218;BME280;3142;48.206;11.550;2022-09-21T11:35:32;96512.28;;;21.00;35.57
6218;BME280;3142;48.206;11.550;2022-09-21T11:38:07;96495.47;;;21.60;34.70
6218;BME280;3142;48.206;11.550;2022-09-21T11:40:44;96482.75;;;22.16;34.83
6218;BME280;3142;48.206;11.550;2022-09-21T11:43:28;96482.59;;;22.65;33.26
6218;BME280;3142;48.206;11.550;2022-09-21T11:46:06;96485.22;;;22.23;33.47
6218;BME280;3142;48.206;11.550;2022-09-21T11:48:53;96482.88;;;22.31;33.79
6218;BME280;3142;48.206;11.550;2022-09-21T11:51:34;96480.81;;;22.43;34.33
6218;BME280;3142;48.206;11.550;2022-09-21T11:54:33;96477.47;;;22.58;34.46
6218;BME280;3142;48.206;11.550;2022-09-21T11:57:08;96478.28;;;22.59;34.43
6218;BME280;3142;48.206;11.550;2022-09-21T11:59:53;96458.31;;;22.66;33.98
6218;BME280;3142;48.206;11.550;2022-09-21T12:02:38;96464.66;;;22.55;33.78
6218;BME280;3142;48.206;11.550;2022-09-21T12:05:18;96464.94;;;21.24;34.19
6218;BME280;3142;48.206;11.550;2022-09-21T12:08:02;96456.94;;;20.80;36.15
6218;BME280;3142;48.206;11.550;2022-09-21T12:10:38;96462.69;;;20.94;36.39
6218;BME280;3142;48.206;11.550;2022-09-21T12:13:14;96460.44;;;20.64;36.48
6218;BME280;3142;48.206;11.550;2022-09-21T12:15:46;96461.34;;;20.91;36.71
6218;BME280;3142;48.206;11.550;2022-09-21T12:18:17;96454.72;;;20.72;36.76
6218;BME280;3142;48.206;11.550;2022-09-21T12:20:55;96456.75;;;20.48;37.48
6218;BME280;3142;48.206;11.550;2022-09-21T12:23:27;96460.09;;;20.10;37.54
6218;BME280;3142;48.206;11.550;2022-09-21T12:25:58;96456.41;;;20.11;37.21
6218;BME280;3142;48.206;11.550;2022-09-21T12:28:29;96463.25;;;20.07;35.40
6218;BME280;3142;48.206;11.550;2022-09-21T12:30:58;96461.69;;;19.94;36.32
6218;BME280;3142;48.206;11.550;2022-09-21T12:33:32;96448.00;;;19.86;36.69
6218;BME280;3142;48.206;11.550;2022-09-21T12:36:07;96455.09;;;19.40;36.57
6218;BME280;3142;48.206;11.550;2022-09-21T12:38:39;96445.00;;;19.53;36.74
6218;BME280;3142;48.206;11.550;2022-09-21T12:41:13;96436.25;;;19.81;37.63
6218;BME280;3142;48.206;11.550;2022-09-21T12:43:43;96438.34;;;20.13;38.23
6218;BME280;3142;48.206;11.550;2022-09-21T12:46:14;96440.84;;;20.53;37.54
6218;BME280;3142;48.206;11.550;2022-09-21T12:48:42;96431.44;;;20.29;36.57
6218;BME280;3142;48.206;11.550;2022-09-21T12:51:16;96441.34;;;20.33;37.29
6218;BME280;3142;48.206;11.550;2022-09-21T12:53:46;96438.34;;;20.13;35.25
6218;BME280;3142;48.206;11.550;2022-09-21T12:56:21;96436.31;;;19.87;35.30
6218;BME280;3142;48.206;11.550;2022-09-21T12:58:59;96439.88;;;19.92;36.75
6218;BME280;3142;48.206;11.550;2022-09-21T13:04:14;96439.50;;;19.55;35.79
6218;BME280;3142;48.206;11.550;2022-09-21T13:07:21;96440.94;;;18.94;36.99
6218;BME280;3142;48.206;11.550;2022-09-21T13:09:54;96441.94;;;19.05;37.74
6218;BME280;3142;48.206;11.550;2022-09-21T13:12:24;96446.28;;;19.22;37.53
6218;BME280;3142;48.206;11.550;2022-09-21T13:14:58;96442.09;;;18.98;36.85
6218;BME280;3142;48.206;11.550;2022-09-21T13:17:29;96443.97;;;18.51;37.87
6218;BME280;3142;48.206;11.550;2022-09-21T13:19:58;96437.50;;;18.58;37.75
6218;BME280;3142;48.206;11.550;2022-09-21T13:22:29;96439.56;;;18.91;37.52
6218;BME280;3142;48.206;11.550;2022-09-21T13:25:00;96436.91;;;18.91;34.67
6218;BME280;3142;48.206;11.550;2022-09-21T13:30:31;96432.88;;;18.89;36.17
6218;BME280;3142;48.206;11.550;2022-09-21T13:32:58;96424.56;;;18.97;36.64
6218;BME280;3142;48.206;11.550;2022-09-21T13:35:51;96421.91;;;18.97;37.24
6218;BME280;3142;48.206;11.550;2022-09-21T13:38:24;96414.41;;;19.06;37.59
6218;BME280;3142;48.206;11.550;2022-09-21T13:40:59;96417.00;;;19.17;36.95